createdAt,value
2023-05-06T00:01:11.134Z,4.90
2023-05-06T00:03:39.189Z,5.47
2023-05-06T00:06:09.170Z,5.43
2023-05-06T00:08:36.639Z,4.53
2023-05-06T00:11:03.820Z,5.28
2023-05-06T00:13:31.619Z,4.75
2023-05-06T00:15:59.011Z,5.70
2023-05-06T00:18:26.229Z,5.43
2023-05-06T00:20:53.596Z,5.05
2023-05-06T00:23:20.769Z,4.82
2023-05-06T00:25:47.894Z,5.50
2023-05-06T00:28:15.356Z,5.25
2023-05-06T00:30:42.493Z,4.72
2023-05-06T00:33:10.057Z,5.25
2023-05-06T00:35:37.298Z,5.40
2023-05-06T00:38:09.770Z,5.63
2023-05-06T00:40:37.590Z,5.85
2023-05-06T00:43:04.726Z,6.32
2023-05-06T00:45:32.669Z,5.60
2023-05-06T00:48:00.039Z,5.90
2023-05-06T00:50:32.634Z,6.75
2023-05-06T00:53:00.512Z,6.73
2023-05-06T00:55:28.084Z,7.22
2023-05-06T00:57:55.237Z,6.55
2023-05-06T01:00:22.557Z,8.25
2023-05-06T01:02:50.737Z,7.38
2023-05-06T01:05:18.414Z,7.03
2023-05-06T01:08:04.928Z,6.05
2023-05-06T01:10:52.480Z,6.72
2023-05-06T01:13:37.032Z,6.57
2023-05-06T01:16:04.867Z,6.50
2023-05-06T01:18:33.243Z,6.47
2023-05-06T01:21:01.575Z,6.43
2023-05-06T01:23:29.264Z,6.30
2023-05-06T01:25:56.457Z,6.85
2023-05-06T01:28:24.172Z,6.53
2023-05-06T01:31:23.614Z,6.18
2023-05-06T01:33:56.694Z,6.10
2023-05-06T01:36:32.892Z,5.95
2023-05-06T01:39:17.923Z,5.75
2023-05-06T01:41:46.385Z,5.82
2023-05-06T01:44:13.644Z,6.32
2023-05-06T01:46:41.201Z,6.25
2023-05-06T01:49:11.118Z,5.72
2023-05-06T01:51:38.283Z,5.60
2023-05-06T01:54:05.747Z,5.20
2023-05-06T01:56:32.944Z,5.03
2023-05-06T01:59:00.669Z,4.97
2023-05-06T02:01:27.866Z,4.70
2023-05-06T02:03:55.759Z,5.22
2023-05-06T02:06:23.072Z,5.10
2023-05-06T02:08:50.775Z,4.45
2023-05-06T02:11:21.501Z,5.72
2023-05-06T02:13:51.251Z,5.15
2023-05-06T02:16:18.817Z,5.13
2023-05-06T02:18:47.172Z,5.05
2023-05-06T02:21:14.795Z,4.53
2023-05-06T02:23:43.116Z,4.47
2023-05-06T02:26:10.352Z,4.32
2023-05-06T02:28:37.515Z,4.10
2023-05-06T02:31:04.911Z,4.85
2023-05-06T02:33:32.391Z,4.32
2023-05-06T02:35:59.581Z,3.05
2023-05-06T02:38:26.968Z,3.70
2023-05-06T02:40:54.450Z,2.85
2023-05-06T02:48:53.432Z,3.70
2023-05-06T02:51:20.713Z,3.05
2023-05-06T02:53:48.029Z,3.90
2023-05-06T02:56:15.553Z,4.00
2023-05-06T02:58:42.903Z,3.90
2023-05-06T03:01:10.508Z,3.30
2023-05-06T03:03:37.567Z,3.47
2023-05-06T03:06:04.896Z,3.40
2023-05-06T03:08:32.526Z,3.70
2023-05-06T03:11:00.702Z,3.53
2023-05-06T03:13:28.142Z,3.58
2023-05-06T03:15:55.628Z,3.40
2023-05-06T03:18:24.085Z,3.72
2023-05-06T03:20:51.550Z,4.22
2023-05-06T03:23:19.469Z,4.38
2023-05-06T03:25:47.422Z,4.30
2023-05-06T03:28:15.225Z,3.30
2023-05-06T03:30:44.617Z,3.00
2023-05-06T03:33:12.696Z,3.08
2023-05-06T03:35:40.082Z,2.83
2023-05-06T03:38:07.425Z,3.55
2023-05-06T03:40:45.139Z,3.08
2023-05-06T03:43:14.659Z,3.22
2023-05-06T03:45:43.465Z,3.20
2023-05-06T03:48:10.870Z,2.80
2023-05-06T03:50:42.269Z,3.00
2023-05-06T03:53:09.603Z,2.85
2023-05-06T03:55:40.201Z,2.90
2023-05-06T03:58:07.526Z,2.83
2023-05-06T04:00:34.960Z,3.03
2023-05-06T04:03:02.842Z,3.28
2023-05-06T04:05:36.579Z,2.92
2023-05-06T04:08:04.443Z,2.78
2023-05-06T04:10:32.032Z,2.65
2023-05-06T04:13:07.349Z,3.40
2023-05-06T04:15:41.608Z,3.60
2023-05-06T04:18:18.638Z,3.10
2023-05-06T04:20:53.720Z,2.60
2023-05-06T04:23:21.789Z,3.85
2023-05-06T04:25:50.229Z,2.60
2023-05-06T04:28:19.938Z,3.00
2023-05-06T04:30:50.673Z,3.40
2023-05-06T04:33:19.486Z,3.35
2023-05-06T04:35:54.515Z,4.68
2023-05-06T04:38:22.562Z,3.88
2023-05-06T04:40:50.557Z,2.70
2023-05-06T04:43:18.019Z,2.78
2023-05-06T04:45:50.518Z,4.90
2023-05-06T04:48:22.850Z,5.32
2023-05-06T04:50:51.825Z,4.15
2023-05-06T04:53:19.400Z,5.13
2023-05-06T04:55:46.821Z,3.92
2023-05-06T04:58:14.597Z,4.63
2023-05-06T05:00:42.223Z,4.28
2023-05-06T05:03:09.627Z,3.05
2023-05-06T05:05:37.504Z,3.38
2023-05-06T05:08:13.344Z,3.03
2023-05-06T05:10:43.959Z,2.85
2023-05-06T05:13:14.852Z,2.60
2023-05-06T05:15:43.767Z,2.75
2023-05-06T05:18:13.367Z,3.20
2023-05-06T05:20:42.164Z,3.13
2023-05-06T05:23:12.311Z,3.13
2023-05-06T05:25:39.715Z,3.75
2023-05-06T05:28:07.278Z,3.17
2023-05-06T05:30:35.830Z,2.78
2023-05-06T05:33:03.189Z,4.43
2023-05-06T05:35:30.556Z,3.83
2023-05-06T05:37:58.642Z,4.00
2023-05-06T05:40:26.283Z,3.00
2023-05-06T05:42:55.114Z,3.83
2023-05-06T05:45:28.376Z,4.82
2023-05-06T05:47:56.578Z,15.60
2023-05-06T05:50:26.089Z,20.80
2023-05-06T05:52:54.383Z,3.47
2023-05-06T05:55:22.780Z,11.32
2023-05-06T05:57:51.419Z,3.90
2023-05-06T06:00:21.429Z,3.88
2023-05-06T06:02:55.191Z,7.78
2023-05-06T06:05:22.962Z,10.07
2023-05-06T06:07:51.227Z,3.38
2023-05-06T06:10:18.493Z,4.38
2023-05-06T06:12:46.074Z,4.55
2023-05-06T06:15:18.406Z,5.20
2023-05-06T06:17:46.357Z,4.60
2023-05-06T06:20:13.849Z,4.82
2023-05-06T06:22:41.623Z,3.25
2023-05-06T06:25:09.850Z,3.15
2023-05-06T06:27:38.032Z,3.10
2023-05-06T06:30:07.287Z,5.35
2023-05-06T06:32:34.560Z,16.48
2023-05-06T06:35:02.184Z,6.43
2023-05-06T06:37:30.027Z,21.17
2023-05-06T06:39:57.394Z,11.48
2023-05-06T06:42:24.537Z,8.05
2023-05-06T06:45:08.384Z,10.32
2023-05-06T06:47:35.866Z,5.32
2023-05-06T06:50:03.368Z,4.60
2023-05-06T06:52:30.970Z,3.10
2023-05-06T06:54:57.977Z,3.60
2023-05-06T06:57:25.839Z,5.30
2023-05-06T06:59:53.407Z,5.25
2023-05-06T07:02:21.200Z,5.85
2023-05-06T07:04:48.620Z,6.80
2023-05-06T07:07:16.230Z,3.97
2023-05-06T07:09:43.904Z,4.93
2023-05-06T07:12:11.130Z,6.00
2023-05-06T07:14:38.479Z,6.32
2023-05-06T07:17:05.782Z,3.92
2023-05-06T07:19:33.364Z,5.32
2023-05-06T07:22:01.005Z,6.13
2023-05-06T07:24:28.580Z,3.45
2023-05-06T07:26:56.276Z,4.72
2023-05-06T07:29:23.498Z,4.80
2023-05-06T07:31:50.524Z,3.50
2023-05-06T07:34:17.840Z,4.43
2023-05-06T07:36:45.298Z,3.70
2023-05-06T07:39:13.575Z,3.60
2023-05-06T07:41:41.070Z,3.88
2023-05-06T07:44:08.497Z,4.18
2023-05-06T07:46:35.669Z,4.15
2023-05-06T07:49:03.048Z,3.58
2023-05-06T07:51:31.727Z,3.70
2023-05-06T07:53:59.130Z,4.55
2023-05-06T07:56:26.214Z,4.03
2023-05-06T07:58:54.145Z,3.92
2023-05-06T08:01:21.218Z,4.13
2023-05-06T08:03:48.319Z,5.10
2023-05-06T08:06:15.689Z,4.03
2023-05-06T08:08:42.837Z,5.25
2023-05-06T08:11:10.167Z,5.03
2023-05-06T08:13:37.343Z,4.45
2023-05-06T08:16:06.388Z,4.65
2023-05-06T08:18:33.639Z,6.43
2023-05-06T08:21:01.131Z,8.05
2023-05-06T08:23:28.148Z,4.13
2023-05-06T08:25:55.815Z,4.75
2023-05-06T08:28:24.661Z,4.40
2023-05-06T08:30:53.096Z,3.95
2023-05-06T08:33:20.851Z,4.95
2023-05-06T08:35:50.421Z,5.45
2023-05-06T08:38:17.673Z,5.63
2023-05-06T08:40:44.855Z,5.40
2023-05-06T08:43:13.898Z,6.32
2023-05-06T08:45:41.689Z,5.38
2023-05-06T08:48:09.304Z,4.97
2023-05-06T08:50:38.554Z,5.18
2023-05-06T08:53:05.672Z,5.53
2023-05-06T08:55:32.926Z,5.13
2023-05-06T08:58:00.602Z,6.15
2023-05-06T09:00:27.729Z,8.02
2023-05-06T09:02:55.021Z,5.85
2023-05-06T09:05:22.104Z,6.40
2023-05-06T09:07:49.165Z,4.95
2023-05-06T09:10:18.736Z,4.72
2023-05-06T09:12:46.433Z,5.43
2023-05-06T09:15:13.978Z,5.47
2023-05-06T09:17:41.638Z,5.45
2023-05-06T09:20:11.476Z,4.93
2023-05-06T09:22:40.512Z,4.80
2023-05-06T09:25:07.919Z,4.57
2023-05-06T09:27:36.777Z,5.00
2023-05-06T09:30:08.586Z,4.53
2023-05-06T09:32:38.299Z,4.80
2023-05-06T09:35:07.188Z,4.82
2023-05-06T09:37:34.309Z,4.57
2023-05-06T09:40:01.868Z,4.70
2023-05-06T09:42:30.507Z,4.82
2023-05-06T09:45:01.656Z,4.68
2023-05-06T09:47:35.398Z,4.60
2023-05-06T09:50:03.278Z,5.03
2023-05-06T09:52:32.401Z,5.32
2023-05-06T09:55:00.193Z,4.95
2023-05-06T09:57:27.852Z,6.00
2023-05-06T09:59:55.240Z,5.63
2023-05-06T10:02:23.588Z,5.18
2023-05-06T10:04:51.507Z,5.60
2023-05-06T10:07:22.317Z,5.50
2023-05-06T10:09:51.184Z,5.40
2023-05-06T10:12:18.629Z,5.53
2023-05-06T10:14:46.231Z,5.20
2023-05-06T10:17:13.940Z,5.57
2023-05-06T10:19:42.665Z,6.18
2023-05-06T10:22:22.916Z,6.57
2023-05-06T10:24:59.001Z,6.82
2023-05-06T10:27:26.067Z,7.05
2023-05-06T10:29:59.128Z,6.10
2023-05-06T10:32:26.992Z,6.70
2023-05-06T10:34:55.202Z,6.68
2023-05-06T10:37:25.626Z,5.90
2023-05-06T10:39:54.064Z,6.95
2023-05-06T10:42:23.937Z,6.78
2023-05-06T10:45:01.098Z,6.75
2023-05-06T10:47:28.493Z,6.63
2023-05-06T10:50:22.392Z,7.28
2023-05-06T10:52:55.193Z,7.72
2023-05-06T10:55:29.523Z,6.97
2023-05-06T10:58:15.166Z,7.10
2023-05-06T11:00:43.024Z,7.63
2023-05-06T11:03:11.762Z,8.10
2023-05-06T11:05:49.421Z,7.78
2023-05-06T11:08:25.351Z,7.78
2023-05-06T11:10:53.624Z,8.25
2023-05-06T11:13:23.526Z,7.90
2023-05-06T11:15:51.794Z,7.53
2023-05-06T11:18:26.106Z,7.55
2023-05-06T11:21:03.177Z,7.03
2023-05-06T11:23:43.182Z,7.28
2023-05-06T11:26:11.388Z,7.43
2023-05-06T11:28:50.461Z,7.03
2023-05-06T11:31:18.073Z,7.90
2023-05-06T11:33:48.944Z,11.27
2023-05-06T11:36:20.561Z,6.80
2023-05-06T11:38:49.689Z,6.45
2023-05-06T11:41:17.389Z,5.90
2023-05-06T11:43:51.340Z,6.30
2023-05-06T11:46:23.259Z,5.90
2023-05-06T11:48:50.989Z,7.75
2023-05-06T11:51:24.938Z,6.18
2023-05-06T11:53:54.121Z,5.88
2023-05-06T11:56:21.670Z,5.88
2023-05-06T11:58:48.812Z,6.20
2023-05-06T12:01:16.129Z,6.53
2023-05-06T12:03:43.779Z,9.40
2023-05-06T12:06:12.681Z,6.25
2023-05-06T12:08:40.108Z,5.55
2023-05-06T12:11:08.039Z,5.10
2023-05-06T12:13:38.806Z,5.72
2023-05-06T12:16:07.518Z,6.97
2023-05-06T12:18:35.047Z,4.85
2023-05-06T12:21:07.097Z,4.13
2023-05-06T12:23:34.253Z,4.70
2023-05-06T12:26:03.728Z,6.43
2023-05-06T12:28:31.846Z,4.93
2023-05-06T12:30:59.453Z,4.57
2023-05-06T12:33:26.809Z,5.88
2023-05-06T12:35:56.741Z,5.30
2023-05-06T12:38:24.219Z,4.72
2023-05-06T12:40:55.090Z,18.60
2023-05-06T12:43:32.641Z,9.00
2023-05-06T12:46:07.251Z,6.88
2023-05-06T12:48:34.684Z,7.07
2023-05-06T12:51:12.486Z,6.40
2023-05-06T12:53:40.152Z,7.32
2023-05-06T12:56:07.471Z,7.90
2023-05-06T12:58:37.695Z,8.35
2023-05-06T13:01:04.835Z,8.23
2023-05-06T13:03:32.258Z,9.52
2023-05-06T13:05:59.727Z,10.20
2023-05-06T13:08:27.849Z,10.65
2023-05-06T13:10:55.194Z,9.48
2023-05-06T13:13:22.581Z,7.70
2023-05-06T13:15:53.054Z,7.55
2023-05-06T13:18:20.153Z,7.70
2023-05-06T13:20:47.426Z,7.90
2023-05-06T13:23:15.212Z,6.97
2023-05-06T13:25:56.339Z,6.22
2023-05-06T13:28:32.022Z,6.78
2023-05-06T13:30:59.189Z,6.05
2023-05-06T13:33:26.598Z,6.25
2023-05-06T13:35:53.672Z,8.57
2023-05-06T13:38:20.823Z,6.53
2023-05-06T13:40:51.880Z,7.15
2023-05-06T13:43:24.407Z,7.43
2023-05-06T13:45:52.921Z,7.60
2023-05-06T13:48:19.960Z,8.00
2023-05-06T13:50:47.837Z,9.93
2023-05-06T13:53:15.065Z,10.88
2023-05-06T13:55:43.061Z,9.70
2023-05-06T13:58:10.726Z,11.70
2023-05-06T14:00:38.743Z,11.32
2023-05-06T14:03:07.148Z,10.98
2023-05-06T14:05:34.605Z,10.98
2023-05-06T14:08:02.048Z,11.77
2023-05-06T14:10:29.505Z,12.82
2023-05-06T14:12:57.321Z,12.20
2023-05-06T14:15:24.946Z,12.60
2023-05-06T14:17:52.039Z,12.60
2023-05-06T14:20:19.212Z,11.43
2023-05-06T14:22:48.374Z,10.80
2023-05-06T14:25:15.462Z,11.38
2023-05-06T14:27:42.767Z,11.60
2023-05-06T14:30:10.578Z,12.05
2023-05-06T14:32:38.341Z,14.10
2023-05-06T14:35:05.914Z,14.88
2023-05-06T14:37:33.144Z,15.10
2023-05-06T14:40:00.941Z,15.20
2023-05-06T14:42:28.370Z,14.50
2023-05-06T14:44:55.552Z,15.05
2023-05-06T14:47:23.311Z,16.25
2023-05-06T14:49:50.466Z,16.70
2023-05-06T14:52:17.835Z,17.05
2023-05-06T14:54:45.162Z,19.27
2023-05-06T14:57:12.523Z,19.85
2023-05-06T14:59:39.845Z,17.65
2023-05-06T15:02:08.620Z,14.75
2023-05-06T15:04:36.383Z,17.13
2023-05-06T15:07:03.615Z,14.02
2023-05-06T15:09:31.102Z,19.40
2023-05-06T15:11:58.450Z,23.42
2023-05-06T15:14:25.831Z,17.25
2023-05-06T15:16:56.240Z,18.30
2023-05-06T15:19:23.863Z,21.38
2023-05-06T15:21:51.327Z,29.90
2023-05-06T15:24:18.431Z,23.23
2023-05-06T15:26:46.051Z,23.33
2023-05-06T15:29:13.503Z,26.58
2023-05-06T15:31:43.414Z,31.73
2023-05-06T15:34:11.164Z,30.65
2023-05-06T15:36:39.800Z,24.55
2023-05-06T15:39:07.129Z,22.00
2023-05-06T15:41:35.700Z,21.08
2023-05-06T15:44:03.477Z,26.48
2023-05-06T15:46:31.274Z,25.05
2023-05-06T15:49:17.852Z,19.15
2023-05-06T15:51:46.003Z,19.40
2023-05-06T15:54:13.270Z,20.50
2023-05-06T15:56:41.573Z,20.90
2023-05-06T15:59:09.225Z,16.85
2023-05-06T16:02:19.001Z,22.00
2023-05-06T16:04:24.649Z,18.10
2023-05-06T16:06:51.923Z,14.63
2023-05-06T16:09:19.300Z,11.85
2023-05-06T16:11:46.457Z,11.00
2023-05-06T16:14:13.493Z,12.30
2023-05-06T16:16:41.059Z,13.48
2023-05-06T16:19:09.450Z,15.98
2023-05-06T16:21:36.834Z,17.48
2023-05-06T16:24:03.981Z,16.63
2023-05-06T16:26:31.399Z,17.40
2023-05-06T16:28:59.585Z,16.17
2023-05-06T16:31:27.052Z,14.90
2023-05-06T16:33:54.353Z,14.45
2023-05-06T16:36:22.342Z,14.80
2023-05-06T16:38:49.752Z,14.43
2023-05-06T16:41:16.829Z,14.85
2023-05-06T16:43:43.874Z,15.13
2023-05-06T16:46:11.354Z,25.75
2023-05-06T16:48:38.745Z,23.85
2023-05-06T16:51:06.538Z,35.85
2023-05-06T16:53:33.782Z,41.65
2023-05-06T16:56:03.079Z,40.88
2023-05-06T16:58:30.153Z,27.35
2023-05-06T17:00:57.366Z,16.83
2023-05-06T17:03:24.564Z,13.73
2023-05-06T17:05:54.390Z,14.77
2023-05-06T17:08:22.989Z,14.75
2023-05-06T17:10:51.608Z,13.85
2023-05-06T17:13:18.946Z,14.18
2023-05-06T17:15:46.155Z,12.38
2023-05-06T17:18:13.893Z,12.02
2023-05-06T17:20:54.547Z,11.30
2023-05-06T17:23:22.956Z,11.15
2023-05-06T17:25:50.866Z,11.80
2023-05-06T17:28:18.834Z,12.52
2023-05-06T17:30:46.628Z,11.65
2023-05-06T17:33:14.175Z,12.57
2023-05-06T17:35:41.168Z,11.73
2023-05-06T17:38:11.050Z,12.85
2023-05-06T17:40:38.459Z,12.23
2023-05-06T17:43:05.637Z,12.73
2023-05-06T17:45:33.030Z,12.55
2023-05-06T17:48:00.349Z,12.95
2023-05-06T17:50:27.375Z,12.98
2023-05-06T17:52:55.182Z,14.45
2023-05-06T17:55:22.532Z,15.23
2023-05-06T17:57:51.435Z,16.33
2023-05-06T18:00:19.055Z,15.77
2023-05-06T18:02:47.024Z,16.70
2023-05-06T18:05:14.630Z,16.60
2023-05-06T18:07:42.273Z,17.08
2023-05-06T18:10:10.216Z,15.82
2023-05-06T18:12:37.549Z,17.50
2023-05-06T18:15:05.736Z,16.98
2023-05-06T18:17:33.894Z,15.75
2023-05-06T18:20:01.473Z,14.93
2023-05-06T18:22:28.766Z,16.33
2023-05-06T18:24:56.525Z,16.25
2023-05-06T18:27:24.014Z,16.20
2023-05-06T18:29:51.246Z,15.30
2023-05-06T18:32:18.721Z,17.52
2023-05-06T18:34:46.138Z,16.77
2023-05-06T18:37:13.552Z,16.60
2023-05-06T18:39:45.103Z,16.85
2023-05-06T18:42:12.474Z,18.45
2023-05-06T18:44:39.723Z,17.60
2023-05-06T18:47:07.231Z,17.70
2023-05-06T18:49:35.205Z,16.75
2023-05-06T18:52:02.410Z,14.75
2023-05-06T18:54:29.719Z,16.00
2023-05-06T18:56:58.246Z,14.18
2023-05-06T18:59:26.373Z,14.15
2023-05-06T19:01:53.783Z,15.43
2023-05-06T19:04:21.175Z,14.60
2023-05-06T19:06:48.477Z,13.43
2023-05-06T19:09:15.882Z,13.73
2023-05-06T19:11:42.974Z,13.32
2023-05-06T19:14:10.189Z,12.77
2023-05-06T19:16:37.445Z,15.23
2023-05-06T19:19:07.825Z,14.00
2023-05-06T19:21:35.552Z,14.13
2023-05-06T19:24:03.444Z,16.15
2023-05-06T19:26:30.801Z,15.25
2023-05-06T19:28:58.278Z,16.35
2023-05-06T19:31:25.762Z,16.10
2023-05-06T19:33:53.200Z,15.52
2023-05-06T19:36:20.840Z,16.65
2023-05-06T19:38:48.192Z,16.25
2023-05-06T19:41:15.965Z,18.60
2023-05-06T19:43:44.003Z,19.17
2023-05-06T19:46:11.585Z,20.98
2023-05-06T19:48:38.882Z,21.42
2023-05-06T19:51:06.817Z,21.42
2023-05-06T19:53:34.113Z,21.13
2023-05-06T19:56:11.963Z,22.77
2023-05-06T19:58:40.246Z,22.23
2023-05-06T20:01:07.420Z,22.08
2023-05-06T20:03:35.011Z,20.30
2023-05-06T20:06:02.769Z,28.10
2023-05-06T20:08:30.825Z,45.10
2023-05-06T20:10:57.999Z,43.53
2023-05-06T20:13:25.652Z,44.40
2023-05-06T20:15:53.910Z,50.58
2023-05-06T20:18:21.013Z,55.10
2023-05-06T20:20:48.241Z,59.03
2023-05-06T20:23:15.941Z,56.80
2023-05-06T20:25:43.388Z,57.85
2023-05-06T20:28:10.894Z,59.22
2023-05-06T20:30:38.877Z,55.00
2023-05-06T20:33:07.404Z,52.00
2023-05-06T20:35:38.291Z,48.58
2023-05-06T20:38:06.518Z,46.60
2023-05-06T20:40:35.248Z,46.60
2023-05-06T20:43:02.797Z,45.10
2023-05-06T20:45:30.978Z,46.17
2023-05-06T20:47:58.670Z,43.40
2023-05-06T20:50:28.195Z,40.92
2023-05-06T20:52:55.403Z,39.10
2023-05-06T20:55:24.544Z,37.85
2023-05-06T20:57:51.842Z,34.28
2023-05-06T21:00:19.289Z,34.42
2023-05-06T21:02:46.508Z,33.58
2023-05-06T21:05:14.116Z,32.35
2023-05-06T21:07:41.584Z,33.65
2023-05-06T21:10:09.898Z,34.35
2023-05-06T21:12:37.606Z,31.90
2023-05-06T21:15:05.887Z,31.98
2023-05-06T21:17:34.102Z,32.13
2023-05-06T21:20:03.532Z,33.45
2023-05-06T21:22:32.885Z,33.65
2023-05-06T21:24:59.972Z,35.45
2023-05-06T21:27:27.275Z,35.92
2023-05-06T21:29:54.646Z,32.15
2023-05-06T21:32:21.781Z,31.25
2023-05-06T21:34:49.151Z,32.60
2023-05-06T21:37:16.242Z,30.52
2023-05-06T21:39:43.383Z,29.25
2023-05-06T21:42:11.039Z,28.52
2023-05-06T21:44:38.275Z,29.55
2023-05-06T21:47:05.612Z,27.15
2023-05-06T21:49:33.002Z,27.02
2023-05-06T21:52:00.993Z,27.30
2023-05-06T21:54:28.340Z,27.90
2023-05-06T21:56:55.669Z,26.20
2023-05-06T21:59:22.668Z,26.25
2023-05-06T22:01:49.731Z,25.33
2023-05-06T22:04:18.798Z,26.70
2023-05-06T22:06:46.115Z,25.58
2023-05-06T22:09:13.758Z,26.20
2023-05-06T22:11:40.769Z,25.17
2023-05-06T22:14:08.537Z,25.58
2023-05-06T22:16:37.575Z,25.25
2023-05-06T22:19:06.679Z,26.33
2023-05-06T22:21:35.118Z,23.30
2023-05-06T22:24:02.021Z,25.55
2023-05-06T22:26:29.225Z,23.60
2023-05-06T22:28:56.762Z,22.73
2023-05-06T22:31:24.898Z,23.70
2023-05-06T22:33:55.035Z,24.08
2023-05-06T22:36:22.750Z,23.38
2023-05-06T22:38:50.160Z,23.27
2023-05-06T22:41:18.017Z,23.10
2023-05-06T22:43:45.288Z,23.52
2023-05-06T22:46:12.811Z,23.02
2023-05-06T22:48:40.735Z,21.98
2023-05-06T22:51:07.854Z,20.63
2023-05-06T22:53:35.151Z,18.85
2023-05-06T22:56:02.338Z,19.30
2023-05-06T22:58:30.420Z,20.13
2023-05-06T23:00:57.597Z,19.77
2023-05-06T23:03:24.771Z,17.80
2023-05-06T23:05:52.449Z,21.30
2023-05-06T23:08:19.851Z,25.58
2023-05-06T23:10:47.069Z,26.55
2023-05-06T23:13:14.440Z,27.33
2023-05-06T23:15:42.061Z,25.52
2023-05-06T23:18:14.698Z,25.77
2023-05-06T23:20:43.962Z,24.52
2023-05-06T23:23:11.402Z,26.13
2023-05-06T23:25:38.817Z,24.83
2023-05-06T23:28:05.927Z,24.52
2023-05-06T23:30:33.103Z,27.35
2023-05-06T23:33:01.065Z,24.65
2023-05-06T23:35:28.720Z,25.50
2023-05-06T23:37:56.405Z,25.33
2023-05-06T23:40:23.518Z,26.20
2023-05-06T23:42:50.538Z,25.52
2023-05-06T23:45:19.747Z,29.80
2023-05-06T23:47:46.887Z,29.60
2023-05-06T23:50:14.865Z,28.65
2023-05-06T23:52:42.046Z,29.02
2023-05-06T23:55:09.935Z,28.15
2023-05-06T23:57:37.613Z,26.92
